createdAt,value
2022-09-09T00:02:33.690Z,25.20
2022-09-09T00:05:05.159Z,25.22
2022-09-09T00:07:41.621Z,25.16
2022-09-09T00:10:26.704Z,25.20
2022-09-09T00:13:15.283Z,25.23
2022-09-09T00:15:48.867Z,25.19
2022-09-09T00:18:31.284Z,25.16
2022-09-09T00:21:10.058Z,25.32
2022-09-09T00:23:41.644Z,25.15
2022-09-09T00:26:31.147Z,25.09
2022-09-09T00:29:01.571Z,25.10
2022-09-09T00:31:34.606Z,25.21
2022-09-09T00:34:15.238Z,25.06
2022-09-09T00:36:48.939Z,24.73
2022-09-09T00:39:36.971Z,24.99
2022-09-09T00:42:24.981Z,25.15
2022-09-09T00:44:58.407Z,25.13
2022-09-09T00:47:45.474Z,24.78
2022-09-09T00:50:27.360Z,24.93
2022-09-09T00:53:03.206Z,25.06
2022-09-09T00:55:42.908Z,25.03
2022-09-09T00:58:12.924Z,24.86
2022-09-09T01:00:46.632Z,25.04
2022-09-09T01:03:21.940Z,24.98
2022-09-09T01:06:17.436Z,24.95
2022-09-09T01:08:55.603Z,24.89
2022-09-09T01:11:27.387Z,24.71
2022-09-09T01:14:19.457Z,24.86
2022-09-09T01:16:47.850Z,24.98
2022-09-09T01:19:21.850Z,24.99
2022-09-09T01:21:59.680Z,24.91
2022-09-09T01:24:45.540Z,24.88
2022-09-09T01:27:30.005Z,25.00
2022-09-09T01:30:01.540Z,24.76
2022-09-09T01:32:40.101Z,24.89
2022-09-09T01:35:22.713Z,24.71
2022-09-09T01:37:56.432Z,24.79
2022-09-09T01:40:29.543Z,24.79
2022-09-09T01:43:03.529Z,24.83
2022-09-09T01:45:38.306Z,24.63
2022-09-09T01:48:15.621Z,24.71
2022-09-09T01:50:47.132Z,24.86
2022-09-09T01:53:20.601Z,24.61
2022-09-09T01:56:26.177Z,24.58
2022-09-09T01:59:02.299Z,24.67
2022-09-09T02:01:41.232Z,24.27
2022-09-09T02:04:29.230Z,24.48
2022-09-09T02:07:05.155Z,24.58
2022-09-09T02:09:38.475Z,24.36
2022-09-09T02:12:08.470Z,24.42
2022-09-09T02:14:47.561Z,24.52
2022-09-09T02:17:20.659Z,24.37
2022-09-09T02:20:12.631Z,24.52
2022-09-09T02:22:59.648Z,24.63
2022-09-09T02:25:31.103Z,24.71
2022-09-09T02:28:16.050Z,24.50
2022-09-09T02:30:44.916Z,24.65
2022-09-09T02:33:15.858Z,24.58
2022-09-09T02:35:54.348Z,24.54
2022-09-09T02:38:30.435Z,24.04
2022-09-09T02:41:15.686Z,24.01
2022-09-09T02:43:45.942Z,23.83
2022-09-09T02:46:31.081Z,24.16
2022-09-09T02:49:03.151Z,24.32
2022-09-09T02:51:46.742Z,24.17
2022-09-09T02:54:24.314Z,23.99
2022-09-09T02:56:57.667Z,24.07
2022-09-09T02:59:41.191Z,24.10
2022-09-09T03:02:18.602Z,24.27
2022-09-09T03:05:03.881Z,24.31
2022-09-09T03:07:37.385Z,24.36
2022-09-09T03:10:11.367Z,24.45
2022-09-09T03:12:44.920Z,24.26
2022-09-09T03:15:20.541Z,24.14
2022-09-09T03:18:17.077Z,24.03
2022-09-09T03:20:52.248Z,23.76
2022-09-09T03:23:24.322Z,23.61
2022-09-09T03:25:57.948Z,23.71
2022-09-09T03:28:36.669Z,23.68
2022-09-09T03:31:11.733Z,23.83
2022-09-09T03:33:47.341Z,23.76
2022-09-09T03:36:22.277Z,23.99
2022-09-09T03:38:56.173Z,23.93
2022-09-09T03:41:28.760Z,24.11
2022-09-09T03:43:59.173Z,24.10
2022-09-09T03:46:35.041Z,24.21
2022-09-09T03:49:09.822Z,24.28
2022-09-09T03:51:41.651Z,24.19
2022-09-09T03:54:18.810Z,24.12
2022-09-09T03:56:51.425Z,24.00
2022-09-09T03:59:24.703Z,24.13
2022-09-09T04:02:00.274Z,24.27
2022-09-09T04:04:36.840Z,24.30
2022-09-09T04:07:09.867Z,24.39
2022-09-09T04:09:42.924Z,24.31
2022-09-09T04:12:17.855Z,24.27
2022-09-09T04:14:51.858Z,24.25
2022-09-09T04:17:25.388Z,24.35
2022-09-09T04:20:01.201Z,24.39
2022-09-09T04:22:34.362Z,24.43
2022-09-09T04:25:07.510Z,24.33
2022-09-09T04:27:39.680Z,24.39
2022-09-09T04:30:18.472Z,24.38
2022-09-09T04:32:51.604Z,24.36
2022-09-09T04:35:26.964Z,24.21
2022-09-09T04:38:01.431Z,24.24
2022-09-09T04:40:41.691Z,24.27
2022-09-09T04:43:14.177Z,24.10
2022-09-09T04:45:53.039Z,23.98
2022-09-09T04:48:26.688Z,24.04
2022-09-09T04:50:56.554Z,23.60
2022-09-09T04:53:26.957Z,23.87
2022-09-09T04:56:07.732Z,23.87
2022-09-09T04:58:44.206Z,23.68
2022-09-09T05:01:19.590Z,23.74
2022-09-09T05:03:50.883Z,23.49
2022-09-09T05:06:22.343Z,23.61
2022-09-09T05:09:00.161Z,23.72
2022-09-09T05:11:33.760Z,23.78
2022-09-09T05:14:12.710Z,23.81
2022-09-09T05:16:48.226Z,23.85
2022-09-09T05:19:20.372Z,24.02
2022-09-09T05:21:51.775Z,24.05
2022-09-09T05:24:27.248Z,23.94
2022-09-09T05:27:03.893Z,23.94
2022-09-09T05:29:40.023Z,23.91
2022-09-09T05:32:17.445Z,24.04
2022-09-09T05:34:54.153Z,23.52
2022-09-09T05:37:28.026Z,23.48
2022-09-09T05:40:00.271Z,22.82
2022-09-09T05:42:34.318Z,23.33
2022-09-09T05:45:10.195Z,23.21
2022-09-09T05:47:41.713Z,23.33
2022-09-09T05:50:20.199Z,23.43
2022-09-09T05:52:53.955Z,23.57
2022-09-09T05:55:26.431Z,23.85
2022-09-09T05:58:02.635Z,23.95
2022-09-09T06:00:33.234Z,23.96
2022-09-09T06:03:09.921Z,23.87
2022-09-09T06:05:40.305Z,23.77
2022-09-09T06:08:11.549Z,23.78
2022-09-09T06:10:45.100Z,23.96
2022-09-09T06:13:16.516Z,24.07
2022-09-09T06:15:53.366Z,24.13
2022-09-09T06:18:26.029Z,23.86
2022-09-09T06:20:58.534Z,24.01
2022-09-09T06:23:32.510Z,23.41
2022-09-09T06:26:12.535Z,23.19
2022-09-09T06:28:44.030Z,23.26
2022-09-09T06:31:29.888Z,23.28
2022-09-09T06:34:05.125Z,23.28
2022-09-09T06:36:39.379Z,23.48
2022-09-09T06:39:16.704Z,23.39
2022-09-09T06:41:54.335Z,23.41
2022-09-09T06:44:42.754Z,23.44
2022-09-09T06:47:15.148Z,23.51
2022-09-09T06:49:48.244Z,23.49
2022-09-09T06:52:22.630Z,23.53
2022-09-09T06:54:59.662Z,23.62
2022-09-09T06:57:37.248Z,23.61
2022-09-09T07:00:15.799Z,23.77
2022-09-09T07:02:49.351Z,23.75
2022-09-09T07:05:22.420Z,23.82
2022-09-09T07:07:55.707Z,23.81
2022-09-09T07:10:29.520Z,23.97
2022-09-09T07:13:02.667Z,24.06
2022-09-09T07:15:39.088Z,24.07
2022-09-09T07:18:11.566Z,24.23
2022-09-09T07:20:50.115Z,24.32
2022-09-09T07:23:23.507Z,24.32
2022-09-09T07:25:54.419Z,24.55
2022-09-09T07:28:31.015Z,24.72
2022-09-09T07:31:06.419Z,24.88
2022-09-09T07:33:37.023Z,24.93
2022-09-09T07:36:09.530Z,25.13
2022-09-09T07:38:46.737Z,25.18
2022-09-09T07:41:37.332Z,25.21
2022-09-09T07:44:33.331Z,25.29
2022-09-09T07:47:08.752Z,25.16
2022-09-09T07:49:42.090Z,25.26
2022-09-09T07:52:21.894Z,25.33
2022-09-09T07:54:58.255Z,25.36
2022-09-09T07:57:29.122Z,25.47
2022-09-09T08:00:02.355Z,25.57
2022-09-09T08:02:46.340Z,25.58
2022-09-09T08:05:21.901Z,25.52
2022-09-09T08:07:57.540Z,25.58
2022-09-09T08:10:33.072Z,25.40
2022-09-09T08:13:19.463Z,25.61
2022-09-09T08:15:53.444Z,25.97
2022-09-09T08:18:26.601Z,26.18
2022-09-09T08:21:00.461Z,26.43
2022-09-09T08:23:31.267Z,26.12
2022-09-09T08:26:04.780Z,26.11
2022-09-09T08:28:35.348Z,26.34
2022-09-09T08:34:00.261Z,26.29
2022-09-09T08:36:33.783Z,26.13
2022-09-09T08:39:12.344Z,26.06
2022-09-09T08:41:52.755Z,26.12
2022-09-09T08:44:35.016Z,26.11
2022-09-09T08:47:13.844Z,26.52
2022-09-09T08:49:49.222Z,26.75
2022-09-09T08:52:39.428Z,26.37
2022-09-09T08:55:18.386Z,26.59
2022-09-09T08:57:49.353Z,26.27
2022-09-09T09:00:22.970Z,26.43
2022-09-09T09:02:59.896Z,26.40
2022-09-09T09:05:47.709Z,26.63
2022-09-09T09:08:28.823Z,26.74
2022-09-09T09:10:59.529Z,27.00
2022-09-09T09:13:44.252Z,27.42
2022-09-09T09:16:33.563Z,27.36
2022-09-09T09:19:09.254Z,28.08
2022-09-09T09:21:46.748Z,27.67
2022-09-09T09:24:23.504Z,27.24
2022-09-09T09:26:55.169Z,27.31
2022-09-09T09:29:27.732Z,27.92
2022-09-09T09:32:03.662Z,27.48
2022-09-09T09:34:36.363Z,27.32
2022-09-09T09:37:15.164Z,28.09
2022-09-09T09:42:39.769Z,27.75
2022-09-09T09:45:20.339Z,27.38
2022-09-09T09:48:03.012Z,27.58
2022-09-09T09:50:40.024Z,27.52
2022-09-09T09:53:21.922Z,26.95
2022-09-09T09:55:58.260Z,26.96
2022-09-09T09:58:32.431Z,27.22
2022-09-09T10:01:03.635Z,26.20
2022-09-09T10:03:40.344Z,25.47
2022-09-09T10:06:08.149Z,24.35
2022-09-09T10:08:48.043Z,22.92
2022-09-09T10:11:41.221Z,21.50
2022-09-09T10:14:23.421Z,21.01
2022-09-09T10:16:53.488Z,21.17
2022-09-09T10:19:32.369Z,21.53
2022-09-09T10:22:09.648Z,21.58
2022-09-09T10:25:12.486Z,21.58
2022-09-09T10:27:45.510Z,21.68
2022-09-09T10:30:17.907Z,21.65
2022-09-09T10:33:03.909Z,21.78
2022-09-09T10:35:39.450Z,21.64
2022-09-09T10:38:15.753Z,21.99
2022-09-09T10:40:56.532Z,21.68
2022-09-09T10:43:39.881Z,21.93
2022-09-09T10:46:14.306Z,21.97
2022-09-09T10:48:48.843Z,22.02
2022-09-09T10:51:28.331Z,22.24
2022-09-09T10:54:07.327Z,21.42
2022-09-09T10:56:37.269Z,21.38
2022-09-09T10:59:13.700Z,21.45
2022-09-09T11:02:09.974Z,21.43
2022-09-09T11:04:44.166Z,21.51
2022-09-09T11:07:17.461Z,21.23
2022-09-09T11:09:52.832Z,21.52
2022-09-09T11:12:25.905Z,21.85
2022-09-09T11:15:09.920Z,21.96
2022-09-09T11:17:42.927Z,22.20
2022-09-09T11:20:15.569Z,22.45
2022-09-09T11:23:14.954Z,22.69
2022-09-09T11:25:53.182Z,23.19
2022-09-09T11:28:33.081Z,23.50
2022-09-09T11:31:06.439Z,23.45
2022-09-09T11:33:52.501Z,23.79
2022-09-09T11:36:37.348Z,23.70
2022-09-09T11:39:23.807Z,24.40
2022-09-09T11:41:58.659Z,24.79
2022-09-09T11:44:32.684Z,25.04
2022-09-09T11:47:05.700Z,24.71
2022-09-09T11:49:44.599Z,24.61
2022-09-09T11:52:27.824Z,24.94
2022-09-09T11:55:00.928Z,25.55
2022-09-09T11:57:40.140Z,27.39
2022-09-09T12:00:11.102Z,29.24
2022-09-09T12:02:51.623Z,30.28
2022-09-09T12:05:22.250Z,31.20
2022-09-09T12:07:56.737Z,31.87
2022-09-09T12:10:31.243Z,32.10
2022-09-09T12:13:19.206Z,32.61
2022-09-09T12:15:59.285Z,33.60
2022-09-09T12:18:40.704Z,34.75
2022-09-09T12:21:23.116Z,34.34
2022-09-09T12:24:00.256Z,34.60
2022-09-09T12:26:41.442Z,34.89
2022-09-09T12:29:23.003Z,34.93
2022-09-09T12:31:53.985Z,36.11
2022-09-09T12:34:41.173Z,36.08
2022-09-09T12:37:27.559Z,35.89
2022-09-09T12:40:06.281Z,35.70
2022-09-09T12:42:37.980Z,35.29
2022-09-09T12:45:27.133Z,35.49
2022-09-09T12:48:10.184Z,35.69
2022-09-09T12:50:47.324Z,35.74
2022-09-09T12:53:25.609Z,35.25
2022-09-09T12:56:04.053Z,35.75
2022-09-09T12:58:35.880Z,36.54
2022-09-09T13:01:06.212Z,36.93
2022-09-09T13:03:44.030Z,37.32
2022-09-09T13:06:12.899Z,37.18
2022-09-09T13:08:43.538Z,37.09
2022-09-09T13:11:15.482Z,37.27
2022-09-09T13:13:51.976Z,37.22
2022-09-09T13:16:24.558Z,37.79
2022-09-09T13:18:57.512Z,38.01
2022-09-09T13:21:43.596Z,37.15
2022-09-09T13:24:43.140Z,37.07
2022-09-09T13:27:29.216Z,36.70
2022-09-09T13:29:59.106Z,37.00
2022-09-09T13:32:32.669Z,37.42
2022-09-09T13:35:08.469Z,35.87
2022-09-09T13:37:42.391Z,36.07
2022-09-09T13:40:31.427Z,34.25
2022-09-09T13:43:03.376Z,33.58
2022-09-09T13:45:33.364Z,31.91
2022-09-09T13:48:09.744Z,30.31
2022-09-09T13:50:42.721Z,29.20
2022-09-09T13:53:16.456Z,28.75
2022-09-09T13:55:50.435Z,28.44
2022-09-09T13:58:27.390Z,28.51
2022-09-09T14:00:58.685Z,28.35
2022-09-09T14:03:34.153Z,28.20
2022-09-09T14:06:28.523Z,28.04
2022-09-09T14:09:02.091Z,27.53
2022-09-09T14:11:32.673Z,27.54
2022-09-09T14:14:06.558Z,27.54
2022-09-09T14:16:37.464Z,27.35
2022-09-09T14:19:11.518Z,27.29
2022-09-09T14:21:44.028Z,26.99
2022-09-09T14:24:17.744Z,26.92
2022-09-09T14:26:53.158Z,26.67
2022-09-09T14:29:24.097Z,26.31
2022-09-09T14:31:56.054Z,26.05
2022-09-09T14:34:28.899Z,26.08
2022-09-09T14:36:56.987Z,26.04
2022-09-09T14:39:30.024Z,26.06
2022-09-09T14:42:00.739Z,26.09
2022-09-09T14:44:34.178Z,26.10
2022-09-09T14:47:04.785Z,26.05
2022-09-09T14:49:53.036Z,26.15
2022-09-09T14:52:24.245Z,26.24
2022-09-09T14:54:54.393Z,26.31
2022-09-09T14:57:27.410Z,26.23
2022-09-09T15:00:00.995Z,25.87
2022-09-09T15:02:37.080Z,25.71
2022-09-09T15:05:16.168Z,25.83
2022-09-09T15:07:49.013Z,25.87
2022-09-09T15:10:23.675Z,25.81
2022-09-09T15:12:54.324Z,25.80
2022-09-09T15:15:24.746Z,25.90
2022-09-09T15:18:00.405Z,25.97
2022-09-09T15:20:40.022Z,25.93
2022-09-09T15:23:13.342Z,25.97
2022-09-09T15:25:56.865Z,26.03
2022-09-09T15:28:30.385Z,26.08
2022-09-09T15:31:07.607Z,26.00
2022-09-09T15:33:38.717Z,25.91
2022-09-09T15:36:18.087Z,25.99
2022-09-09T15:38:51.105Z,25.87
2022-09-09T15:41:22.113Z,25.92
2022-09-09T15:44:00.224Z,25.78
2022-09-09T15:46:38.594Z,25.67
2022-09-09T15:49:13.086Z,25.65
2022-09-09T15:51:47.365Z,25.72
2022-09-09T15:54:24.492Z,25.60
2022-09-09T15:57:01.827Z,25.53
2022-09-09T15:59:36.951Z,25.55
2022-09-09T16:02:08.009Z,25.72
2022-09-09T16:04:39.075Z,25.50
2022-09-09T16:07:14.771Z,25.39
2022-09-09T16:09:47.271Z,25.53
2022-09-09T16:12:20.258Z,25.45
2022-09-09T16:14:52.699Z,25.63
2022-09-09T16:17:28.929Z,25.47
2022-09-09T16:20:02.130Z,25.47
2022-09-09T16:22:32.415Z,25.49
2022-09-09T16:25:11.274Z,25.40
2022-09-09T16:27:39.266Z,25.50
2022-09-09T16:30:10.257Z,25.39
2022-09-09T16:32:46.064Z,25.17
2022-09-09T16:35:20.690Z,25.23
2022-09-09T16:37:51.242Z,25.04
2022-09-09T16:40:22.116Z,25.05
2022-09-09T16:42:55.079Z,25.05
2022-09-09T16:45:27.507Z,24.94
2022-09-09T16:48:00.571Z,24.91
2022-09-09T16:50:56.711Z,24.84
2022-09-09T16:53:29.307Z,24.78
2022-09-09T16:56:00.063Z,24.73
2022-09-09T16:58:34.036Z,24.80
2022-09-09T17:01:04.568Z,24.83
2022-09-09T17:03:34.577Z,24.95
2022-09-09T17:06:15.160Z,24.95
2022-09-09T17:08:50.040Z,24.92
2022-09-09T17:11:25.604Z,24.80
2022-09-09T17:13:56.573Z,24.70
2022-09-09T17:16:28.589Z,24.68
2022-09-09T17:19:02.201Z,24.62
2022-09-09T17:21:35.687Z,24.54
2022-09-09T17:24:06.832Z,24.50
2022-09-09T17:26:39.965Z,24.47
2022-09-09T17:29:12.435Z,24.54
2022-09-09T17:31:45.273Z,24.44
2022-09-09T17:34:18.309Z,24.53
2022-09-09T17:36:54.042Z,24.50
2022-09-09T17:39:24.276Z,24.45
2022-09-09T17:41:55.906Z,24.49
2022-09-09T17:44:33.547Z,24.32
2022-09-09T17:47:07.352Z,24.26
2022-09-09T17:49:40.341Z,24.40
2022-09-09T17:52:10.699Z,24.26
2022-09-09T17:54:42.918Z,24.30
2022-09-09T17:57:20.206Z,24.39
2022-09-09T17:59:53.237Z,24.49
2022-09-09T18:02:26.054Z,24.34
2022-09-09T18:04:57.915Z,23.97
2022-09-09T18:07:31.284Z,24.28
2022-09-09T18:10:05.997Z,24.41
2022-09-09T18:12:37.362Z,24.42
2022-09-09T18:15:24.172Z,24.42
2022-09-09T18:18:19.751Z,24.42
2022-09-09T18:20:50.305Z,24.35
2022-09-09T18:23:21.194Z,24.41
2022-09-09T18:25:58.985Z,24.13
2022-09-09T18:28:30.404Z,24.19
2022-09-09T18:31:00.839Z,24.02
2022-09-09T18:33:33.589Z,23.94
2022-09-09T18:36:09.888Z,23.71
2022-09-09T18:38:40.992Z,23.79
2022-09-09T18:41:26.131Z,23.78
2022-09-09T18:44:01.042Z,23.88
2022-09-09T18:46:38.767Z,24.17
2022-09-09T18:49:11.927Z,24.18
2022-09-09T18:51:47.303Z,24.13
2022-09-09T18:54:23.338Z,23.97
2022-09-09T18:56:54.070Z,23.74
2022-09-09T18:59:24.308Z,24.15
2022-09-09T19:01:57.841Z,24.27
2022-09-09T19:04:30.448Z,24.31
2022-09-09T19:07:00.810Z,24.28
2022-09-09T19:09:31.247Z,24.31
2022-09-09T19:12:02.451Z,24.28
2022-09-09T19:14:35.832Z,24.51
2022-09-09T19:17:08.800Z,24.42
2022-09-09T19:19:43.884Z,24.64
2022-09-09T19:22:15.273Z,24.39
2022-09-09T19:24:46.260Z,24.12
2022-09-09T19:27:21.775Z,24.37
2022-09-09T19:29:56.373Z,24.34
2022-09-09T19:35:31.040Z,23.97
2022-09-09T19:38:05.130Z,24.20
2022-09-09T19:40:38.260Z,23.95
2022-09-09T19:43:09.924Z,24.22
2022-09-09T19:45:45.075Z,24.10
2022-09-09T19:48:20.545Z,24.34
2022-09-09T19:50:51.235Z,24.23
2022-09-09T19:53:24.433Z,24.18
2022-09-09T19:55:58.022Z,24.04
2022-09-09T19:58:34.475Z,24.25
2022-09-09T20:01:06.119Z,24.17
2022-09-09T20:03:39.098Z,24.21
2022-09-09T20:06:33.629Z,24.21
2022-09-09T20:09:04.556Z,24.53
2022-09-09T20:11:39.412Z,23.91
2022-09-09T20:14:15.963Z,24.08
2022-09-09T20:16:49.406Z,24.13
2022-09-09T20:19:22.410Z,23.86
2022-09-09T20:21:52.265Z,24.04
2022-09-09T20:24:26.380Z,23.64
2022-09-09T20:27:04.499Z,23.61
2022-09-09T20:29:35.333Z,23.61
2022-09-09T20:32:07.963Z,23.69
2022-09-09T20:34:47.803Z,23.47
2022-09-09T20:37:21.740Z,23.25
2022-09-09T20:39:53.275Z,23.50
2022-09-09T20:42:26.191Z,23.52
2022-09-09T20:45:00.281Z,23.86
2022-09-09T20:47:33.125Z,24.15
2022-09-09T20:50:06.066Z,24.06
2022-09-09T20:52:37.803Z,24.03
2022-09-09T20:55:11.067Z,23.69
2022-09-09T20:57:43.577Z,23.87
2022-09-09T21:00:15.001Z,23.74
2022-09-09T21:02:47.684Z,23.55
2022-09-09T21:05:23.809Z,23.28
2022-09-09T21:07:57.758Z,23.41
2022-09-09T21:10:27.583Z,23.47
2022-09-09T21:13:01.599Z,23.39
2022-09-09T21:15:36.860Z,23.16
2022-09-09T21:18:11.568Z,23.24
2022-09-09T21:20:39.354Z,22.75
2022-09-09T21:23:13.308Z,22.71
2022-09-09T21:25:51.861Z,22.03
2022-09-09T21:28:28.468Z,21.14
2022-09-09T21:31:02.085Z,20.56
2022-09-09T21:33:36.329Z,20.17
2022-09-09T21:36:06.864Z,20.34
2022-09-09T21:38:45.771Z,20.58
2022-09-09T21:41:17.802Z,20.97
2022-09-09T21:43:57.860Z,20.95
2022-09-09T21:46:28.373Z,21.02
2022-09-09T21:49:03.649Z,21.32
2022-09-09T21:51:34.506Z,21.03
2022-09-09T21:54:05.132Z,21.40
2022-09-09T21:56:37.984Z,21.46
2022-09-09T21:59:10.674Z,20.82
2022-09-09T22:01:42.129Z,20.62
2022-09-09T22:04:12.195Z,20.98
2022-09-09T22:06:39.599Z,21.10
2022-09-09T22:09:12.997Z,21.12
2022-09-09T22:11:43.643Z,21.23
2022-09-09T22:14:16.425Z,21.44
2022-09-09T22:16:51.562Z,21.29
2022-09-09T22:19:22.114Z,21.35
2022-09-09T22:21:53.548Z,21.41
2022-09-09T22:24:26.523Z,21.35
2022-09-09T22:27:17.353Z,21.03
2022-09-09T22:29:45.168Z,21.01
2022-09-09T22:32:16.528Z,21.09
2022-09-09T22:34:44.292Z,21.25
2022-09-09T22:37:14.957Z,21.19
2022-09-09T22:39:43.163Z,21.16
2022-09-09T22:42:15.897Z,20.76
2022-09-09T22:44:48.278Z,20.77
2022-09-09T22:47:22.351Z,21.10
2022-09-09T22:49:57.063Z,21.57
2022-09-09T22:52:40.480Z,21.53
2022-09-09T22:55:09.533Z,21.78
2022-09-09T22:57:47.697Z,22.05
2022-09-09T23:00:21.059Z,22.10
2022-09-09T23:02:54.550Z,21.86
2022-09-09T23:05:25.490Z,22.14
2022-09-09T23:07:58.656Z,21.79
2022-09-09T23:10:34.903Z,21.82
2022-09-09T23:13:09.331Z,22.13
2022-09-09T23:16:07.037Z,22.31
2022-09-09T23:18:44.560Z,22.54
2022-09-09T23:21:16.567Z,22.34
2022-09-09T23:23:49.937Z,22.28
2022-09-09T23:26:21.022Z,22.34
2022-09-09T23:28:58.399Z,22.55
2022-09-09T23:31:33.146Z,22.46
2022-09-09T23:34:06.666Z,22.27
2022-09-09T23:36:40.580Z,22.05
2022-09-09T23:39:18.777Z,22.21
2022-09-09T23:41:52.037Z,22.56
2022-09-09T23:44:23.860Z,22.56
2022-09-09T23:46:56.958Z,22.53
2022-09-09T23:49:32.412Z,22.63
2022-09-09T23:52:05.465Z,22.01
2022-09-09T23:54:41.383Z,22.23
2022-09-09T23:57:13.677Z,22.51
2022-09-09T23:59:45.689Z,22.52
